sensor_id;sensor_type;location;lat;lon;timestamp;P1;durP1;ratioP1;P2;durP2;ratioP2
9449;SDS011;4763;48.370;10.874;2024-02-21T00:02:18;7.67;;;3.20;;
9449;SDS011;4763;48.370;10.874;2024-02-21T00:04:45;7.90;;;2.90;;
9449;SDS011;4763;48.370;10.874;2024-02-21T00:07:12;4.87;;;2.70;;
9449;SDS011;4763;48.370;10.874;2024-02-21T00:09:40;8.60;;;2.93;;
9449;SDS011;4763;48.370;10.874;2024-02-21T00:12:08;10.43;;;3.30;;
9449;SDS011;4763;48.370;10.874;2024-02-21T00:14:35;5.20;;;2.47;;
9449;SDS011;4763;48.370;10.874;2024-02-21T00:17:02;7.07;;;3.07;;
9449;SDS011;4763;48.370;10.874;2024-02-21T00:19:28;5.67;;;2.70;;
9449;SDS011;4763;48.370;10.874;2024-02-21T00:21:55;5.57;;;2.60;;
9449;SDS011;4763;48.370;10.874;2024-02-21T00:24:22;5.23;;;3.03;;
9449;SDS011;4763;48.370;10.874;2024-02-21T00:26:50;6.67;;;2.33;;
9449;SDS011;4763;48.370;10.874;2024-02-21T00:29:17;7.27;;;2.87;;
9449;SDS011;4763;48.370;10.874;2024-02-21T00:31:44;3.80;;;2.33;;
9449;SDS011;4763;48.370;10.874;2024-02-21T00:34:10;6.83;;;3.03;;
9449;SDS011;4763;48.370;10.874;2024-02-21T00:36:38;5.20;;;2.27;;
9449;SDS011;4763;48.370;10.874;2024-02-21T00:39:05;6.43;;;2.70;;
9449;SDS011;4763;48.370;10.874;2024-02-21T00:41:32;4.27;;;2.40;;
9449;SDS011;4763;48.370;10.874;2024-02-21T00:44:00;4.83;;;2.57;;
9449;SDS011;4763;48.370;10.874;2024-02-21T00:46:28;6.20;;;2.30;;
9449;SDS011;4763;48.370;10.874;2024-02-21T00:48:55;8.13;;;2.83;;
9449;SDS011;4763;48.370;10.874;2024-02-21T00:51:21;6.33;;;2.67;;
9449;SDS011;4763;48.370;10.874;2024-02-21T00:53:48;6.80;;;2.60;;
9449;SDS011;4763;48.370;10.874;2024-02-21T00:56:16;7.43;;;2.67;;
9449;SDS011;4763;48.370;10.874;2024-02-21T00:58:42;6.83;;;2.90;;
9449;SDS011;4763;48.370;10.874;2024-02-21T01:01:10;8.10;;;3.20;;
9449;SDS011;4763;48.370;10.874;2024-02-21T01:03:39;7.90;;;2.80;;
9449;SDS011;4763;48.370;10.874;2024-02-21T01:06:05;5.60;;;2.70;;
9449;SDS011;4763;48.370;10.874;2024-02-21T01:08:32;8.50;;;2.93;;
9449;SDS011;4763;48.370;10.874;2024-02-21T01:10:59;7.00;;;3.30;;
9449;SDS011;4763;48.370;10.874;2024-02-21T01:13:26;4.10;;;2.93;;
9449;SDS011;4763;48.370;10.874;2024-02-21T01:15:53;6.17;;;2.73;;
9449;SDS011;4763;48.370;10.874;2024-02-21T01:18:27;6.13;;;3.10;;
9449;SDS011;4763;48.370;10.874;2024-02-21T01:20:55;9.30;;;2.63;;
9449;SDS011;4763;48.370;10.874;2024-02-21T01:23:25;9.03;;;2.90;;
9449;SDS011;4763;48.370;10.874;2024-02-21T01:25:51;3.80;;;2.43;;
9449;SDS011;4763;48.370;10.874;2024-02-21T01:28:19;7.30;;;2.43;;
9449;SDS011;4763;48.370;10.874;2024-02-21T01:30:47;7.60;;;2.97;;
9449;SDS011;4763;48.370;10.874;2024-02-21T01:33:14;6.10;;;2.70;;
9449;SDS011;4763;48.370;10.874;2024-02-21T01:35:42;5.83;;;2.80;;
9449;SDS011;4763;48.370;10.874;2024-02-21T01:38:13;5.40;;;2.53;;
9449;SDS011;4763;48.370;10.874;2024-02-21T01:40:42;4.23;;;2.50;;
9449;SDS011;4763;48.370;10.874;2024-02-21T01:43:15;13.43;;;3.07;;
9449;SDS011;4763;48.370;10.874;2024-02-21T01:45:43;7.60;;;3.20;;
9449;SDS011;4763;48.370;10.874;2024-02-21T01:48:12;5.00;;;3.33;;
9449;SDS011;4763;48.370;10.874;2024-02-21T01:50:39;5.57;;;2.73;;
9449;SDS011;4763;48.370;10.874;2024-02-21T01:53:07;8.60;;;2.60;;
9449;SDS011;4763;48.370;10.874;2024-02-21T01:55:35;8.87;;;2.40;;
9449;SDS011;4763;48.370;10.874;2024-02-21T01:58:02;4.77;;;2.40;;
9449;SDS011;4763;48.370;10.874;2024-02-21T02:00:29;5.73;;;2.40;;
9449;SDS011;4763;48.370;10.874;2024-02-21T02:02:57;7.07;;;2.90;;
9449;SDS011;4763;48.370;10.874;2024-02-21T02:05:24;5.30;;;2.63;;
9449;SDS011;4763;48.370;10.874;2024-02-21T02:07:52;6.10;;;2.87;;
9449;SDS011;4763;48.370;10.874;2024-02-21T02:10:20;6.90;;;3.10;;
9449;SDS011;4763;48.370;10.874;2024-02-21T02:12:47;4.60;;;2.27;;
9449;SDS011;4763;48.370;10.874;2024-02-21T02:15:13;4.80;;;2.33;;
9449;SDS011;4763;48.370;10.874;2024-02-21T02:17:40;6.87;;;2.30;;
9449;SDS011;4763;48.370;10.874;2024-02-21T02:20:07;3.10;;;2.33;;
9449;SDS011;4763;48.370;10.874;2024-02-21T02:22:34;5.37;;;2.83;;
9449;SDS011;4763;48.370;10.874;2024-02-21T02:25:04;5.10;;;2.87;;
9449;SDS011;4763;48.370;10.874;2024-02-21T02:27:31;4.17;;;3.10;;
9449;SDS011;4763;48.370;10.874;2024-02-21T02:29:58;7.40;;;2.63;;
9449;SDS011;4763;48.370;10.874;2024-02-21T02:32:25;5.90;;;2.93;;
9449;SDS011;4763;48.370;10.874;2024-02-21T02:34:51;8.03;;;3.33;;
9449;SDS011;4763;48.370;10.874;2024-02-21T02:37:18;8.97;;;3.03;;
9449;SDS011;4763;48.370;10.874;2024-02-21T02:39:45;6.07;;;2.47;;
9449;SDS011;4763;48.370;10.874;2024-02-21T02:42:13;5.80;;;2.33;;
9449;SDS011;4763;48.370;10.874;2024-02-21T02:44:40;9.33;;;2.80;;
9449;SDS011;4763;48.370;10.874;2024-02-21T02:47:06;7.87;;;2.60;;
9449;SDS011;4763;48.370;10.874;2024-02-21T02:49:34;7.47;;;2.93;;
9449;SDS011;4763;48.370;10.874;2024-02-21T02:52:01;5.47;;;2.40;;
9449;SDS011;4763;48.370;10.874;2024-02-21T02:54:28;8.47;;;3.13;;
9449;SDS011;4763;48.370;10.874;2024-02-21T02:56:55;7.70;;;2.87;;
9449;SDS011;4763;48.370;10.874;2024-02-21T02:59:23;5.83;;;2.27;;
9449;SDS011;4763;48.370;10.874;2024-02-21T03:01:50;5.33;;;2.47;;
9449;SDS011;4763;48.370;10.874;2024-02-21T03:04:16;6.83;;;2.87;;
9449;SDS011;4763;48.370;10.874;2024-02-21T03:06:43;6.30;;;2.53;;
9449;SDS011;4763;48.370;10.874;2024-02-21T03:09:10;3.77;;;2.30;;
9449;SDS011;4763;48.370;10.874;2024-02-21T03:11:37;5.20;;;2.37;;
9449;SDS011;4763;48.370;10.874;2024-02-21T03:14:05;6.70;;;3.03;;
9449;SDS011;4763;48.370;10.874;2024-02-21T03:16:33;9.17;;;3.10;;
9449;SDS011;4763;48.370;10.874;2024-02-21T03:19:00;3.47;;;3.00;;
9449;SDS011;4763;48.370;10.874;2024-02-21T03:21:27;5.10;;;2.03;;
9449;SDS011;4763;48.370;10.874;2024-02-21T03:23:54;7.70;;;2.80;;
9449;SDS011;4763;48.370;10.874;2024-02-21T03:26:20;7.17;;;2.53;;
9449;SDS011;4763;48.370;10.874;2024-02-21T03:28:47;4.57;;;2.40;;
9449;SDS011;4763;48.370;10.874;2024-02-21T03:31:14;5.63;;;2.20;;
9449;SDS011;4763;48.370;10.874;2024-02-21T03:33:43;8.03;;;3.10;;
9449;SDS011;4763;48.370;10.874;2024-02-21T03:36:12;6.77;;;2.60;;
9449;SDS011;4763;48.370;10.874;2024-02-21T03:38:40;10.57;;;2.77;;
9449;SDS011;4763;48.370;10.874;2024-02-21T03:41:07;7.07;;;2.50;;
9449;SDS011;4763;48.370;10.874;2024-02-21T03:43:33;8.27;;;2.70;;
9449;SDS011;4763;48.370;10.874;2024-02-21T03:46:00;3.97;;;2.53;;
9449;SDS011;4763;48.370;10.874;2024-02-21T03:48:27;8.43;;;2.27;;
9449;SDS011;4763;48.370;10.874;2024-02-21T03:50:55;4.40;;;2.50;;
9449;SDS011;4763;48.370;10.874;2024-02-21T03:53:22;8.73;;;2.40;;
9449;SDS011;4763;48.370;10.874;2024-02-21T03:55:49;5.87;;;2.90;;
9449;SDS011;4763;48.370;10.874;2024-02-21T03:58:15;7.33;;;2.40;;
9449;SDS011;4763;48.370;10.874;2024-02-21T04:00:42;4.33;;;2.70;;
9449;SDS011;4763;48.370;10.874;2024-02-21T04:03:09;5.33;;;2.77;;
9449;SDS011;4763;48.370;10.874;2024-02-21T04:05:36;3.80;;;2.27;;
9449;SDS011;4763;48.370;10.874;2024-02-21T04:08:04;8.33;;;2.53;;
9449;SDS011;4763;48.370;10.874;2024-02-21T04:10:31;4.07;;;2.40;;
9449;SDS011;4763;48.370;10.874;2024-02-21T04:12:58;7.57;;;2.80;;
9449;SDS011;4763;48.370;10.874;2024-02-21T04:15:25;5.73;;;2.50;;
9449;SDS011;4763;48.370;10.874;2024-02-21T04:17:51;6.60;;;2.40;;
9449;SDS011;4763;48.370;10.874;2024-02-21T04:20:18;3.87;;;2.30;;
9449;SDS011;4763;48.370;10.874;2024-02-21T04:22:45;3.23;;;2.30;;
9449;SDS011;4763;48.370;10.874;2024-02-21T04:25:13;6.13;;;2.50;;
9449;SDS011;4763;48.370;10.874;2024-02-21T04:27:40;7.13;;;2.43;;
9449;SDS011;4763;48.370;10.874;2024-02-21T04:30:07;3.97;;;2.20;;
9449;SDS011;4763;48.370;10.874;2024-02-21T04:32:36;6.67;;;2.40;;
9449;SDS011;4763;48.370;10.874;2024-02-21T04:35:05;2.37;;;2.03;;
9449;SDS011;4763;48.370;10.874;2024-02-21T04:37:34;7.60;;;3.00;;
9449;SDS011;4763;48.370;10.874;2024-02-21T04:40:01;7.67;;;3.07;;
9449;SDS011;4763;48.370;10.874;2024-02-21T04:42:29;4.63;;;2.57;;
9449;SDS011;4763;48.370;10.874;2024-02-21T04:44:56;3.73;;;2.37;;
9449;SDS011;4763;48.370;10.874;2024-02-21T04:47:23;6.43;;;2.67;;
9449;SDS011;4763;48.370;10.874;2024-02-21T04:49:50;4.07;;;2.80;;
9449;SDS011;4763;48.370;10.874;2024-02-21T04:52:17;3.47;;;2.60;;
9449;SDS011;4763;48.370;10.874;2024-02-21T04:54:43;8.73;;;2.33;;
9449;SDS011;4763;48.370;10.874;2024-02-21T04:57:10;2.57;;;2.23;;
9449;SDS011;4763;48.370;10.874;2024-02-21T04:59:43;6.27;;;2.20;;
9449;SDS011;4763;48.370;10.874;2024-02-21T05:02:09;3.87;;;2.50;;
9449;SDS011;4763;48.370;10.874;2024-02-21T05:04:37;4.67;;;2.47;;
9449;SDS011;4763;48.370;10.874;2024-02-21T05:07:05;7.73;;;2.80;;
9449;SDS011;4763;48.370;10.874;2024-02-21T05:09:32;4.40;;;2.70;;
9449;SDS011;4763;48.370;10.874;2024-02-21T05:11:59;6.17;;;2.17;;
9449;SDS011;4763;48.370;10.874;2024-02-21T05:14:25;4.60;;;2.17;;
9449;SDS011;4763;48.370;10.874;2024-02-21T05:16:54;7.73;;;2.90;;
9449;SDS011;4763;48.370;10.874;2024-02-21T05:19:21;9.70;;;2.67;;
9449;SDS011;4763;48.370;10.874;2024-02-21T05:21:47;4.53;;;2.40;;
9449;SDS011;4763;48.370;10.874;2024-02-21T05:24:14;7.33;;;2.10;;
9449;SDS011;4763;48.370;10.874;2024-02-21T05:26:41;3.10;;;2.20;;
9449;SDS011;4763;48.370;10.874;2024-02-21T05:29:07;2.47;;;1.77;;
9449;SDS011;4763;48.370;10.874;2024-02-21T05:31:43;6.67;;;2.10;;
9449;SDS011;4763;48.370;10.874;2024-02-21T05:34:23;2.57;;;2.03;;
9449;SDS011;4763;48.370;10.874;2024-02-21T05:36:50;7.00;;;2.73;;
9449;SDS011;4763;48.370;10.874;2024-02-21T05:39:17;2.90;;;2.10;;
9449;SDS011;4763;48.370;10.874;2024-02-21T05:41:44;6.03;;;2.50;;
9449;SDS011;4763;48.370;10.874;2024-02-21T05:44:11;2.57;;;2.10;;
9449;SDS011;4763;48.370;10.874;2024-02-21T05:46:38;4.00;;;2.20;;
9449;SDS011;4763;48.370;10.874;2024-02-21T05:49:06;4.83;;;2.30;;
9449;SDS011;4763;48.370;10.874;2024-02-21T05:51:33;5.97;;;2.23;;
9449;SDS011;4763;48.370;10.874;2024-02-21T05:54:00;4.40;;;2.43;;
9449;SDS011;4763;48.370;10.874;2024-02-21T05:56:27;3.47;;;2.30;;
9449;SDS011;4763;48.370;10.874;2024-02-21T05:58:54;4.83;;;2.43;;
9449;SDS011;4763;48.370;10.874;2024-02-21T06:01:21;2.33;;;2.07;;
9449;SDS011;4763;48.370;10.874;2024-02-21T06:03:48;2.60;;;2.10;;
9449;SDS011;4763;48.370;10.874;2024-02-21T06:06:16;5.33;;;2.00;;
9449;SDS011;4763;48.370;10.874;2024-02-21T06:08:43;5.33;;;2.27;;
9449;SDS011;4763;48.370;10.874;2024-02-21T06:11:10;5.53;;;2.30;;
9449;SDS011;4763;48.370;10.874;2024-02-21T06:13:38;6.20;;;2.10;;
9449;SDS011;4763;48.370;10.874;2024-02-21T06:16:05;3.37;;;2.10;;
9449;SDS011;4763;48.370;10.874;2024-02-21T06:18:35;3.03;;;1.87;;
9449;SDS011;4763;48.370;10.874;2024-02-21T06:21:03;5.30;;;2.13;;
9449;SDS011;4763;48.370;10.874;2024-02-21T06:23:31;6.67;;;2.27;;
9449;SDS011;4763;48.370;10.874;2024-02-21T06:25:58;6.67;;;2.47;;
9449;SDS011;4763;48.370;10.874;2024-02-21T06:28:24;4.60;;;3.00;;
9449;SDS011;4763;48.370;10.874;2024-02-21T06:30:51;3.67;;;1.73;;
9449;SDS011;4763;48.370;10.874;2024-02-21T06:33:18;3.30;;;1.70;;
9449;SDS011;4763;48.370;10.874;2024-02-21T06:35:49;6.43;;;2.60;;
9449;SDS011;4763;48.370;10.874;2024-02-21T06:38:18;11.80;;;5.53;;
9449;SDS011;4763;48.370;10.874;2024-02-21T06:40:46;4.03;;;2.70;;
9449;SDS011;4763;48.370;10.874;2024-02-21T06:43:17;3.53;;;2.20;;
9449;SDS011;4763;48.370;10.874;2024-02-21T06:45:44;2.90;;;1.90;;
9449;SDS011;4763;48.370;10.874;2024-02-21T06:48:15;5.33;;;2.60;;
9449;SDS011;4763;48.370;10.874;2024-02-21T06:50:42;6.97;;;2.97;;
9449;SDS011;4763;48.370;10.874;2024-02-21T06:53:09;5.13;;;2.53;;
9449;SDS011;4763;48.370;10.874;2024-02-21T06:55:36;5.10;;;2.50;;
9449;SDS011;4763;48.370;10.874;2024-02-21T06:58:04;5.57;;;2.90;;
9449;SDS011;4763;48.370;10.874;2024-02-21T07:00:33;4.87;;;3.33;;
9449;SDS011;4763;48.370;10.874;2024-02-21T07:03:00;5.77;;;2.60;;
9449;SDS011;4763;48.370;10.874;2024-02-21T07:05:27;5.47;;;2.27;;
9449;SDS011;4763;48.370;10.874;2024-02-21T07:07:54;2.93;;;2.17;;
9449;SDS011;4763;48.370;10.874;2024-02-21T07:10:21;6.20;;;2.07;;
9449;SDS011;4763;48.370;10.874;2024-02-21T07:12:47;7.53;;;2.37;;
9449;SDS011;4763;48.370;10.874;2024-02-21T07:15:16;4.23;;;2.27;;
9449;SDS011;4763;48.370;10.874;2024-02-21T07:17:42;4.43;;;2.20;;
9449;SDS011;4763;48.370;10.874;2024-02-21T07:20:10;4.07;;;2.37;;
9449;SDS011;4763;48.370;10.874;2024-02-21T07:22:37;3.93;;;1.83;;
9449;SDS011;4763;48.370;10.874;2024-02-21T07:25:04;7.83;;;2.17;;
9449;SDS011;4763;48.370;10.874;2024-02-21T07:27:31;7.60;;;2.33;;
9449;SDS011;4763;48.370;10.874;2024-02-21T07:29:58;13.17;;;3.30;;
9449;SDS011;4763;48.370;10.874;2024-02-21T07:32:26;5.53;;;2.40;;
9449;SDS011;4763;48.370;10.874;2024-02-21T07:34:53;4.33;;;2.30;;
9449;SDS011;4763;48.370;10.874;2024-02-21T07:37:20;3.43;;;1.63;;
9449;SDS011;4763;48.370;10.874;2024-02-21T07:39:47;4.40;;;1.27;;
9449;SDS011;4763;48.370;10.874;2024-02-21T07:42:13;3.03;;;1.80;;
9449;SDS011;4763;48.370;10.874;2024-02-21T07:44:40;3.00;;;1.50;;
9449;SDS011;4763;48.370;10.874;2024-02-21T07:47:07;3.60;;;1.80;;
9449;SDS011;4763;48.370;10.874;2024-02-21T07:49:41;3.23;;;1.73;;
9449;SDS011;4763;48.370;10.874;2024-02-21T07:52:10;6.80;;;2.47;;
9449;SDS011;4763;48.370;10.874;2024-02-21T07:54:36;2.67;;;2.37;;
9449;SDS011;4763;48.370;10.874;2024-02-21T07:57:03;10.30;;;2.00;;
9449;SDS011;4763;48.370;10.874;2024-02-21T07:59:30;4.30;;;1.80;;
9449;SDS011;4763;48.370;10.874;2024-02-21T08:01:57;1.50;;;1.40;;
9449;SDS011;4763;48.370;10.874;2024-02-21T08:04:24;4.03;;;1.73;;
9449;SDS011;4763;48.370;10.874;2024-02-21T08:06:53;2.40;;;1.70;;
9449;SDS011;4763;48.370;10.874;2024-02-21T08:09:20;8.77;;;2.37;;
9449;SDS011;4763;48.370;10.874;2024-02-21T08:11:47;5.07;;;2.20;;
9449;SDS011;4763;48.370;10.874;2024-02-21T08:14:15;3.63;;;1.90;;
9449;SDS011;4763;48.370;10.874;2024-02-21T08:16:42;2.90;;;1.70;;
9449;SDS011;4763;48.370;10.874;2024-02-21T08:19:09;3.13;;;1.83;;
9449;SDS011;4763;48.370;10.874;2024-02-21T08:21:36;2.37;;;1.43;;
9449;SDS011;4763;48.370;10.874;2024-02-21T08:24:05;5.87;;;1.77;;
9449;SDS011;4763;48.370;10.874;2024-02-21T08:26:31;3.03;;;1.93;;
9449;SDS011;4763;48.370;10.874;2024-02-21T08:28:58;3.87;;;1.50;;
9449;SDS011;4763;48.370;10.874;2024-02-21T08:31:25;3.23;;;1.70;;
9449;SDS011;4763;48.370;10.874;2024-02-21T08:33:56;4.77;;;1.40;;
9449;SDS011;4763;48.370;10.874;2024-02-21T08:36:27;3.40;;;1.40;;
9449;SDS011;4763;48.370;10.874;2024-02-21T08:38:54;3.00;;;1.73;;
9449;SDS011;4763;48.370;10.874;2024-02-21T08:41:23;6.87;;;2.10;;
9449;SDS011;4763;48.370;10.874;2024-02-21T08:43:50;2.30;;;1.47;;
9449;SDS011;4763;48.370;10.874;2024-02-21T08:46:17;4.93;;;1.97;;
9449;SDS011;4763;48.370;10.874;2024-02-21T08:48:44;2.67;;;1.50;;
9449;SDS011;4763;48.370;10.874;2024-02-21T08:51:11;4.17;;;2.37;;
9449;SDS011;4763;48.370;10.874;2024-02-21T08:53:39;3.70;;;1.77;;
9449;SDS011;4763;48.370;10.874;2024-02-21T08:56:06;3.60;;;1.90;;
9449;SDS011;4763;48.370;10.874;2024-02-21T08:58:34;2.87;;;1.57;;
9449;SDS011;4763;48.370;10.874;2024-02-21T09:01:03;1.80;;;1.33;;
9449;SDS011;4763;48.370;10.874;2024-02-21T09:03:30;2.60;;;1.60;;
9449;SDS011;4763;48.370;10.874;2024-02-21T09:05:57;3.23;;;1.70;;
9449;SDS011;4763;48.370;10.874;2024-02-21T09:08:25;2.30;;;1.33;;
9449;SDS011;4763;48.370;10.874;2024-02-21T09:10:51;2.00;;;1.40;;
9449;SDS011;4763;48.370;10.874;2024-02-21T09:13:18;4.27;;;1.63;;
9449;SDS011;4763;48.370;10.874;2024-02-21T09:15:47;4.17;;;1.50;;
9449;SDS011;4763;48.370;10.874;2024-02-21T09:18:14;2.87;;;1.40;;
9449;SDS011;4763;48.370;10.874;2024-02-21T09:20:41;2.17;;;1.40;;
9449;SDS011;4763;48.370;10.874;2024-02-21T09:23:08;3.07;;;1.43;;
9449;SDS011;4763;48.370;10.874;2024-02-21T09:25:34;3.87;;;1.23;;
9449;SDS011;4763;48.370;10.874;2024-02-21T09:28:01;4.03;;;1.67;;
9449;SDS011;4763;48.370;10.874;2024-02-21T09:30:28;3.53;;;1.60;;
9449;SDS011;4763;48.370;10.874;2024-02-21T09:32:57;2.70;;;1.63;;
9449;SDS011;4763;48.370;10.874;2024-02-21T09:35:26;4.10;;;1.50;;
9449;SDS011;4763;48.370;10.874;2024-02-21T09:37:53;3.30;;;1.20;;
9449;SDS011;4763;48.370;10.874;2024-02-21T09:40:20;6.00;;;1.40;;
9449;SDS011;4763;48.370;10.874;2024-02-21T09:42:47;2.97;;;1.63;;
9449;SDS011;4763;48.370;10.874;2024-02-21T09:45:18;2.07;;;1.53;;
9449;SDS011;4763;48.370;10.874;2024-02-21T09:47:50;4.30;;;1.60;;
9449;SDS011;4763;48.370;10.874;2024-02-21T09:50:25;1.37;;;1.20;;
9449;SDS011;4763;48.370;10.874;2024-02-21T09:52:53;2.43;;;1.43;;
9449;SDS011;4763;48.370;10.874;2024-02-21T09:55:21;2.77;;;1.20;;
9449;SDS011;4763;48.370;10.874;2024-02-21T09:57:50;1.83;;;1.00;;
9449;SDS011;4763;48.370;10.874;2024-02-21T10:00:17;2.93;;;1.50;;
9449;SDS011;4763;48.370;10.874;2024-02-21T10:02:46;1.63;;;1.30;;
9449;SDS011;4763;48.370;10.874;2024-02-21T10:05:14;5.67;;;1.67;;
9449;SDS011;4763;48.370;10.874;2024-02-21T10:07:44;1.20;;;1.00;;
9449;SDS011;4763;48.370;10.874;2024-02-21T10:10:10;1.17;;;0.90;;
9449;SDS011;4763;48.370;10.874;2024-02-21T10:12:47;2.43;;;1.13;;
9449;SDS011;4763;48.370;10.874;2024-02-21T10:15:19;3.50;;;1.50;;
9449;SDS011;4763;48.370;10.874;2024-02-21T10:17:47;2.30;;;1.40;;
9449;SDS011;4763;48.370;10.874;2024-02-21T10:20:13;1.63;;;0.93;;
9449;SDS011;4763;48.370;10.874;2024-02-21T10:22:41;2.90;;;1.30;;
9449;SDS011;4763;48.370;10.874;2024-02-21T10:25:10;1.17;;;1.07;;
9449;SDS011;4763;48.370;10.874;2024-02-21T10:27:37;2.30;;;1.40;;
9449;SDS011;4763;48.370;10.874;2024-02-21T10:30:05;2.83;;;1.37;;
9449;SDS011;4763;48.370;10.874;2024-02-21T10:32:33;5.27;;;1.50;;
9449;SDS011;4763;48.370;10.874;2024-02-21T10:35:00;3.57;;;1.07;;
9449;SDS011;4763;48.370;10.874;2024-02-21T10:37:29;1.60;;;1.00;;
9449;SDS011;4763;48.370;10.874;2024-02-21T10:39:56;2.13;;;1.20;;
9449;SDS011;4763;48.370;10.874;2024-02-21T10:42:25;2.50;;;1.00;;
9449;SDS011;4763;48.370;10.874;2024-02-21T10:44:55;2.80;;;1.00;;
9449;SDS011;4763;48.370;10.874;2024-02-21T10:47:26;2.00;;;0.80;;
9449;SDS011;4763;48.370;10.874;2024-02-21T10:49:57;1.10;;;1.00;;
9449;SDS011;4763;48.370;10.874;2024-02-21T10:52:31;2.47;;;1.00;;
9449;SDS011;4763;48.370;10.874;2024-02-21T10:55:09;2.77;;;1.07;;
9449;SDS011;4763;48.370;10.874;2024-02-21T10:57:39;1.10;;;0.90;;
9449;SDS011;4763;48.370;10.874;2024-02-21T11:00:06;1.97;;;1.10;;
9449;SDS011;4763;48.370;10.874;2024-02-21T11:02:37;1.27;;;1.03;;
9449;SDS011;4763;48.370;10.874;2024-02-21T11:05:05;1.17;;;0.80;;
9449;SDS011;4763;48.370;10.874;2024-02-21T11:07:35;1.23;;;0.87;;
9449;SDS011;4763;48.370;10.874;2024-02-21T11:10:03;1.50;;;1.00;;
9449;SDS011;4763;48.370;10.874;2024-02-21T11:12:32;1.77;;;1.00;;
9449;SDS011;4763;48.370;10.874;2024-02-21T11:15:07;1.00;;;0.90;;
9449;SDS011;4763;48.370;10.874;2024-02-21T11:17:34;1.53;;;1.00;;
9449;SDS011;4763;48.370;10.874;2024-02-21T11:20:10;1.63;;;0.90;;
9449;SDS011;4763;48.370;10.874;2024-02-21T11:22:41;1.77;;;0.80;;
9449;SDS011;4763;48.370;10.874;2024-02-21T11:25:08;2.30;;;1.20;;
9449;SDS011;4763;48.370;10.874;2024-02-21T11:27:36;0.90;;;0.80;;
9449;SDS011;4763;48.370;10.874;2024-02-21T11:30:04;3.00;;;1.00;;
9449;SDS011;4763;48.370;10.874;2024-02-21T11:32:34;1.67;;;0.90;;
9449;SDS011;4763;48.370;10.874;2024-02-21T11:35:02;1.73;;;1.00;;
9449;SDS011;4763;48.370;10.874;2024-02-21T11:37:30;1.00;;;0.90;;
9449;SDS011;4763;48.370;10.874;2024-02-21T11:39:59;1.70;;;1.10;;
9449;SDS011;4763;48.370;10.874;2024-02-21T11:42:26;1.03;;;0.87;;
9449;SDS011;4763;48.370;10.874;2024-02-21T11:44:54;1.00;;;0.90;;
9449;SDS011;4763;48.370;10.874;2024-02-21T11:47:24;2.40;;;1.03;;
9449;SDS011;4763;48.370;10.874;2024-02-21T11:49:51;0.77;;;0.73;;
9449;SDS011;4763;48.370;10.874;2024-02-21T11:52:20;2.00;;;0.87;;
9449;SDS011;4763;48.370;10.874;2024-02-21T11:54:49;1.43;;;0.90;;
9449;SDS011;4763;48.370;10.874;2024-02-21T11:57:17;1.27;;;0.87;;
9449;SDS011;4763;48.370;10.874;2024-02-21T11:59:44;4.20;;;0.83;;
9449;SDS011;4763;48.370;10.874;2024-02-21T12:02:11;1.13;;;0.80;;
9449;SDS011;4763;48.370;10.874;2024-02-21T12:04:40;1.30;;;0.77;;
9449;SDS011;4763;48.370;10.874;2024-02-21T12:07:07;2.73;;;0.80;;
9449;SDS011;4763;48.370;10.874;2024-02-21T12:09:35;1.30;;;0.90;;
9449;SDS011;4763;48.370;10.874;2024-02-21T12:12:02;1.87;;;0.97;;
9449;SDS011;4763;48.370;10.874;2024-02-21T12:14:30;1.30;;;0.90;;
9449;SDS011;4763;48.370;10.874;2024-02-21T12:16:58;2.90;;;0.70;;
9449;SDS011;4763;48.370;10.874;2024-02-21T12:19:26;1.47;;;0.90;;
9449;SDS011;4763;48.370;10.874;2024-02-21T12:21:56;0.60;;;0.60;;
9449;SDS011;4763;48.370;10.874;2024-02-21T12:24:25;1.53;;;0.70;;
9449;SDS011;4763;48.370;10.874;2024-02-21T12:26:53;1.17;;;0.80;;
9449;SDS011;4763;48.370;10.874;2024-02-21T12:29:21;0.73;;;0.70;;
9449;SDS011;4763;48.370;10.874;2024-02-21T12:31:49;1.43;;;0.67;;
9449;SDS011;4763;48.370;10.874;2024-02-21T12:34:16;0.60;;;0.60;;
9449;SDS011;4763;48.370;10.874;2024-02-21T12:36:44;0.90;;;0.80;;
9449;SDS011;4763;48.370;10.874;2024-02-21T12:39:13;1.40;;;0.80;;
9449;SDS011;4763;48.370;10.874;2024-02-21T12:41:41;0.80;;;0.80;;
9449;SDS011;4763;48.370;10.874;2024-02-21T12:44:09;1.47;;;0.97;;
9449;SDS011;4763;48.370;10.874;2024-02-21T12:46:37;1.20;;;0.90;;
9449;SDS011;4763;48.370;10.874;2024-02-21T12:49:04;2.60;;;0.90;;
9449;SDS011;4763;48.370;10.874;2024-02-21T12:51:32;1.27;;;0.73;;
9449;SDS011;4763;48.370;10.874;2024-02-21T12:53:59;0.60;;;0.60;;
9449;SDS011;4763;48.370;10.874;2024-02-21T12:56:29;2.27;;;1.00;;
9449;SDS011;4763;48.370;10.874;2024-02-21T12:58:56;2.47;;;0.60;;
9449;SDS011;4763;48.370;10.874;2024-02-21T13:01:23;1.23;;;0.90;;
9449;SDS011;4763;48.370;10.874;2024-02-21T13:03:49;3.57;;;0.93;;
9449;SDS011;4763;48.370;10.874;2024-02-21T13:06:16;1.67;;;0.90;;
9449;SDS011;4763;48.370;10.874;2024-02-21T13:08:44;1.00;;;0.80;;
9449;SDS011;4763;48.370;10.874;2024-02-21T13:11:11;1.17;;;0.80;;
9449;SDS011;4763;48.370;10.874;2024-02-21T13:13:40;0.83;;;0.63;;
9449;SDS011;4763;48.370;10.874;2024-02-21T13:16:07;2.53;;;0.80;;
9449;SDS011;4763;48.370;10.874;2024-02-21T13:18:35;0.77;;;0.77;;
9449;SDS011;4763;48.370;10.874;2024-02-21T13:21:03;5.80;;;0.87;;
9449;SDS011;4763;48.370;10.874;2024-02-21T13:23:30;2.93;;;1.33;;
9449;SDS011;4763;48.370;10.874;2024-02-21T13:25:57;0.80;;;0.80;;
9449;SDS011;4763;48.370;10.874;2024-02-21T13:28:23;1.07;;;0.90;;
9449;SDS011;4763;48.370;10.874;2024-02-21T13:30:51;2.33;;;0.93;;
9449;SDS011;4763;48.370;10.874;2024-02-21T13:33:18;2.50;;;1.10;;
9449;SDS011;4763;48.370;10.874;2024-02-21T13:35:45;1.70;;;1.20;;
9449;SDS011;4763;48.370;10.874;2024-02-21T13:38:12;2.27;;;1.00;;
9449;SDS011;4763;48.370;10.874;2024-02-21T13:40:39;3.13;;;1.00;;
9449;SDS011;4763;48.370;10.874;2024-02-21T13:43:07;0.63;;;0.60;;
9449;SDS011;4763;48.370;10.874;2024-02-21T13:45:34;0.80;;;0.80;;
9449;SDS011;4763;48.370;10.874;2024-02-21T13:48:03;1.70;;;1.03;;
9449;SDS011;4763;48.370;10.874;2024-02-21T13:50:31;1.67;;;0.90;;
9449;SDS011;4763;48.370;10.874;2024-02-21T13:53:07;2.83;;;1.10;;
9449;SDS011;4763;48.370;10.874;2024-02-21T13:55:34;1.07;;;0.90;;
9449;SDS011;4763;48.370;10.874;2024-02-21T13:58:01;1.33;;;1.10;;
9449;SDS011;4763;48.370;10.874;2024-02-21T14:00:28;1.57;;;0.90;;
9449;SDS011;4763;48.370;10.874;2024-02-21T14:02:55;2.47;;;0.90;;
9449;SDS011;4763;48.370;10.874;2024-02-21T14:05:24;0.90;;;0.80;;
9449;SDS011;4763;48.370;10.874;2024-02-21T14:07:51;0.67;;;0.63;;
9449;SDS011;4763;48.370;10.874;2024-02-21T14:10:19;1.23;;;0.70;;
9449;SDS011;4763;48.370;10.874;2024-02-21T14:12:46;1.30;;;0.70;;
9449;SDS011;4763;48.370;10.874;2024-02-21T14:15:13;0.90;;;0.80;;
9449;SDS011;4763;48.370;10.874;2024-02-21T14:17:41;1.40;;;0.97;;
9449;SDS011;4763;48.370;10.874;2024-02-21T14:20:08;2.33;;;0.93;;
9449;SDS011;4763;48.370;10.874;2024-02-21T14:22:38;2.20;;;0.97;;
9449;SDS011;4763;48.370;10.874;2024-02-21T14:25:05;1.80;;;0.90;;
9449;SDS011;4763;48.370;10.874;2024-02-21T14:27:32;0.83;;;0.80;;
9449;SDS011;4763;48.370;10.874;2024-02-21T14:30:01;1.43;;;0.90;;
9449;SDS011;4763;48.370;10.874;2024-02-21T14:32:28;1.77;;;0.97;;
9449;SDS011;4763;48.370;10.874;2024-02-21T14:34:57;0.70;;;0.70;;
9449;SDS011;4763;48.370;10.874;2024-02-21T14:37:23;0.90;;;0.80;;
9449;SDS011;4763;48.370;10.874;2024-02-21T14:39:51;1.13;;;0.80;;
9449;SDS011;4763;48.370;10.874;2024-02-21T14:42:18;1.00;;;0.90;;
9449;SDS011;4763;48.370;10.874;2024-02-21T14:44:45;1.67;;;0.87;;
9449;SDS011;4763;48.370;10.874;2024-02-21T14:47:11;1.77;;;1.00;;
9449;SDS011;4763;48.370;10.874;2024-02-21T14:49:38;2.10;;;1.00;;
9449;SDS011;4763;48.370;10.874;2024-02-21T14:52:05;1.07;;;0.93;;
9449;SDS011;4763;48.370;10.874;2024-02-21T14:54:34;2.20;;;1.13;;
9449;SDS011;4763;48.370;10.874;2024-02-21T14:57:02;1.23;;;0.90;;
9449;SDS011;4763;48.370;10.874;2024-02-21T14:59:29;1.90;;;1.13;;
9449;SDS011;4763;48.370;10.874;2024-02-21T15:01:56;1.60;;;1.10;;
9449;SDS011;4763;48.370;10.874;2024-02-21T15:04:22;0.77;;;0.70;;